sensor_id;sensor_type;location;lat;lon;timestamp;P1;durP1;ratioP1;P2;durP2;ratioP2
20482;SDS011;10400;53.198;6.592;2024-03-08T00:02:03;49.30;;;25.70;;
20482;SDS011;10400;53.198;6.592;2024-03-08T00:04:29;51.50;;;26.10;;
20482;SDS011;10400;53.198;6.592;2024-03-08T00:06:54;51.90;;;26.60;;
20482;SDS011;10400;53.198;6.592;2024-03-08T00:09:20;53.80;;;26.73;;
20482;SDS011;10400;53.198;6.592;2024-03-08T00:11:46;52.15;;;26.85;;
20482;SDS011;10400;53.198;6.592;2024-03-08T00:14:14;51.83;;;27.13;;
20482;SDS011;10400;53.198;6.592;2024-03-08T00:16:39;51.20;;;26.40;;
20482;SDS011;10400;53.198;6.592;2024-03-08T00:19:08;52.00;;;25.83;;
20482;SDS011;10400;53.198;6.592;2024-03-08T00:21:34;55.03;;;26.97;;
20482;SDS011;10400;53.198;6.592;2024-03-08T00:24:00;53.17;;;27.47;;
20482;SDS011;10400;53.198;6.592;2024-03-08T00:26:26;52.00;;;26.50;;
20482;SDS011;10400;53.198;6.592;2024-03-08T00:28:53;56.05;;;26.00;;
20482;SDS011;10400;53.198;6.592;2024-03-08T00:31:19;56.47;;;26.70;;
20482;SDS011;10400;53.198;6.592;2024-03-08T00:33:45;54.70;;;27.83;;
20482;SDS011;10400;53.198;6.592;2024-03-08T00:36:11;55.37;;;27.20;;
20482;SDS011;10400;53.198;6.592;2024-03-08T00:38:36;56.73;;;28.50;;
20482;SDS011;10400;53.198;6.592;2024-03-08T00:41:02;54.63;;;27.80;;
20482;SDS011;10400;53.198;6.592;2024-03-08T00:43:28;56.60;;;28.03;;
20482;SDS011;10400;53.198;6.592;2024-03-08T00:45:55;55.90;;;27.73;;
20482;SDS011;10400;53.198;6.592;2024-03-08T00:48:22;61.97;;;27.97;;
20482;SDS011;10400;53.198;6.592;2024-03-08T00:50:48;51.73;;;27.40;;
20482;SDS011;10400;53.198;6.592;2024-03-08T00:53:14;58.70;;;28.50;;
20482;SDS011;10400;53.198;6.592;2024-03-08T00:55:39;51.87;;;27.83;;
20482;SDS011;10400;53.198;6.592;2024-03-08T00:58:05;61.67;;;27.73;;
20482;SDS011;10400;53.198;6.592;2024-03-08T01:00:31;55.50;;;29.38;;
20482;SDS011;10400;53.198;6.592;2024-03-08T01:02:56;51.10;;;27.07;;
20482;SDS011;10400;53.198;6.592;2024-03-08T01:05:22;51.22;;;27.35;;
20482;SDS011;10400;53.198;6.592;2024-03-08T01:07:49;59.83;;;27.73;;
20482;SDS011;10400;53.198;6.592;2024-03-08T01:10:15;58.20;;;28.03;;
20482;SDS011;10400;53.198;6.592;2024-03-08T01:12:41;53.20;;;27.20;;
20482;SDS011;10400;53.198;6.592;2024-03-08T01:15:08;59.22;;;27.83;;
20482;SDS011;10400;53.198;6.592;2024-03-08T01:17:35;60.03;;;26.90;;
20482;SDS011;10400;53.198;6.592;2024-03-08T01:20:01;53.40;;;28.43;;
20482;SDS011;10400;53.198;6.592;2024-03-08T01:22:28;58.27;;;27.67;;
20482;SDS011;10400;53.198;6.592;2024-03-08T01:24:55;54.97;;;27.53;;
20482;SDS011;10400;53.198;6.592;2024-03-08T01:27:21;56.20;;;29.60;;
20482;SDS011;10400;53.198;6.592;2024-03-08T01:29:47;61.73;;;27.77;;
20482;SDS011;10400;53.198;6.592;2024-03-08T01:32:13;56.50;;;28.10;;
20482;SDS011;10400;53.198;6.592;2024-03-08T01:34:39;58.33;;;28.07;;
20482;SDS011;10400;53.198;6.592;2024-03-08T01:37:05;53.93;;;27.57;;
20482;SDS011;10400;53.198;6.592;2024-03-08T01:39:31;51.93;;;27.00;;
20482;SDS011;10400;53.198;6.592;2024-03-08T01:41:57;54.03;;;26.60;;
20482;SDS011;10400;53.198;6.592;2024-03-08T01:44:23;54.90;;;26.97;;
20482;SDS011;10400;53.198;6.592;2024-03-08T01:46:49;54.40;;;26.97;;
20482;SDS011;10400;53.198;6.592;2024-03-08T01:49:17;51.20;;;26.60;;
20482;SDS011;10400;53.198;6.592;2024-03-08T01:51:45;51.80;;;26.43;;
20482;SDS011;10400;53.198;6.592;2024-03-08T01:54:12;57.28;;;28.42;;
20482;SDS011;10400;53.198;6.592;2024-03-08T01:56:41;54.70;;;27.17;;
20482;SDS011;10400;53.198;6.592;2024-03-08T01:59:07;60.73;;;28.40;;
20482;SDS011;10400;53.198;6.592;2024-03-08T02:01:34;57.57;;;27.20;;
20482;SDS011;10400;53.198;6.592;2024-03-08T02:03:59;54.40;;;27.77;;
20482;SDS011;10400;53.198;6.592;2024-03-08T02:06:25;55.50;;;26.77;;
20482;SDS011;10400;53.198;6.592;2024-03-08T02:08:51;50.10;;;25.83;;
20482;SDS011;10400;53.198;6.592;2024-03-08T02:11:17;53.97;;;27.07;;
20482;SDS011;10400;53.198;6.592;2024-03-08T02:13:43;58.90;;;27.67;;
20482;SDS011;10400;53.198;6.592;2024-03-08T02:16:09;52.03;;;25.87;;
20482;SDS011;10400;53.198;6.592;2024-03-08T02:18:35;53.33;;;26.30;;
20482;SDS011;10400;53.198;6.592;2024-03-08T02:21:02;51.10;;;25.67;;
20482;SDS011;10400;53.198;6.592;2024-03-08T02:23:29;54.43;;;26.30;;
20482;SDS011;10400;53.198;6.592;2024-03-08T02:25:55;52.70;;;26.40;;
20482;SDS011;10400;53.198;6.592;2024-03-08T02:28:22;57.37;;;25.33;;
20482;SDS011;10400;53.198;6.592;2024-03-08T02:30:48;58.37;;;25.63;;
20482;SDS011;10400;53.198;6.592;2024-03-08T02:33:21;51.37;;;27.17;;
20482;SDS011;10400;53.198;6.592;2024-03-08T02:35:48;53.70;;;26.10;;
20482;SDS011;10400;53.198;6.592;2024-03-08T02:38:15;49.87;;;25.87;;
20482;SDS011;10400;53.198;6.592;2024-03-08T02:40:42;49.63;;;24.87;;
20482;SDS011;10400;53.198;6.592;2024-03-08T02:43:08;53.90;;;26.07;;
20482;SDS011;10400;53.198;6.592;2024-03-08T02:45:35;51.07;;;25.53;;
20482;SDS011;10400;53.198;6.592;2024-03-08T02:48:01;43.87;;;24.57;;
20482;SDS011;10400;53.198;6.592;2024-03-08T02:50:26;51.87;;;25.53;;
20482;SDS011;10400;53.198;6.592;2024-03-08T02:52:52;50.97;;;24.83;;
20482;SDS011;10400;53.198;6.592;2024-03-08T02:55:18;50.80;;;25.20;;
20482;SDS011;10400;53.198;6.592;2024-03-08T02:57:44;54.70;;;26.27;;
20482;SDS011;10400;53.198;6.592;2024-03-08T03:00:12;48.17;;;25.37;;
20482;SDS011;10400;53.198;6.592;2024-03-08T03:02:38;44.93;;;24.30;;
20482;SDS011;10400;53.198;6.592;2024-03-08T03:05:05;47.83;;;23.97;;
20482;SDS011;10400;53.198;6.592;2024-03-08T03:07:34;51.13;;;25.57;;
20482;SDS011;10400;53.198;6.592;2024-03-08T03:10:00;48.57;;;24.03;;
20482;SDS011;10400;53.198;6.592;2024-03-08T03:12:28;47.73;;;24.13;;
20482;SDS011;10400;53.198;6.592;2024-03-08T03:14:55;50.23;;;24.97;;
20482;SDS011;10400;53.198;6.592;2024-03-08T03:17:24;44.93;;;24.30;;
20482;SDS011;10400;53.198;6.592;2024-03-08T03:19:50;45.33;;;25.00;;
20482;SDS011;10400;53.198;6.592;2024-03-08T03:22:19;43.40;;;23.07;;
20482;SDS011;10400;53.198;6.592;2024-03-08T03:24:45;44.10;;;24.10;;
20482;SDS011;10400;53.198;6.592;2024-03-08T03:27:11;43.47;;;22.93;;
20482;SDS011;10400;53.198;6.592;2024-03-08T03:29:38;46.03;;;22.97;;
20482;SDS011;10400;53.198;6.592;2024-03-08T03:32:07;45.50;;;23.73;;
20482;SDS011;10400;53.198;6.592;2024-03-08T03:34:33;47.07;;;24.23;;
20482;SDS011;10400;53.198;6.592;2024-03-08T03:37:02;50.60;;;25.03;;
20482;SDS011;10400;53.198;6.592;2024-03-08T03:39:29;45.37;;;23.23;;
20482;SDS011;10400;53.198;6.592;2024-03-08T03:41:57;45.87;;;24.03;;
20482;SDS011;10400;53.198;6.592;2024-03-08T03:44:23;49.73;;;24.20;;
20482;SDS011;10400;53.198;6.592;2024-03-08T03:46:49;46.57;;;23.77;;
20482;SDS011;10400;53.198;6.592;2024-03-08T03:49:18;47.53;;;23.73;;
20482;SDS011;10400;53.198;6.592;2024-03-08T03:51:44;46.03;;;23.83;;
20482;SDS011;10400;53.198;6.592;2024-03-08T03:54:10;46.37;;;23.30;;
20482;SDS011;10400;53.198;6.592;2024-03-08T03:56:36;44.20;;;23.67;;
20482;SDS011;10400;53.198;6.592;2024-03-08T03:59:02;45.10;;;23.60;;
20482;SDS011;10400;53.198;6.592;2024-03-08T04:01:27;42.87;;;23.33;;
20482;SDS011;10400;53.198;6.592;2024-03-08T04:03:54;44.43;;;23.97;;
20482;SDS011;10400;53.198;6.592;2024-03-08T04:06:20;41.10;;;22.80;;
20482;SDS011;10400;53.198;6.592;2024-03-08T04:08:47;48.37;;;22.67;;
20482;SDS011;10400;53.198;6.592;2024-03-08T04:11:13;47.83;;;23.63;;
20482;SDS011;10400;53.198;6.592;2024-03-08T04:13:41;46.27;;;23.60;;
20482;SDS011;10400;53.198;6.592;2024-03-08T04:16:07;51.30;;;22.67;;
20482;SDS011;10400;53.198;6.592;2024-03-08T04:18:33;44.57;;;23.50;;
20482;SDS011;10400;53.198;6.592;2024-03-08T04:21:00;48.43;;;23.33;;
20482;SDS011;10400;53.198;6.592;2024-03-08T04:23:31;45.43;;;23.10;;
20482;SDS011;10400;53.198;6.592;2024-03-08T04:26:00;43.10;;;22.67;;
20482;SDS011;10400;53.198;6.592;2024-03-08T04:28:30;47.57;;;23.63;;
20482;SDS011;10400;53.198;6.592;2024-03-08T04:30:56;46.87;;;22.77;;
20482;SDS011;10400;53.198;6.592;2024-03-08T04:33:22;44.93;;;23.07;;
20482;SDS011;10400;53.198;6.592;2024-03-08T04:35:48;44.37;;;23.27;;
20482;SDS011;10400;53.198;6.592;2024-03-08T04:38:14;44.17;;;23.10;;
20482;SDS011;10400;53.198;6.592;2024-03-08T04:40:40;43.93;;;22.27;;
20482;SDS011;10400;53.198;6.592;2024-03-08T04:43:06;45.80;;;23.33;;
20482;SDS011;10400;53.198;6.592;2024-03-08T04:45:33;47.07;;;21.63;;
20482;SDS011;10400;53.198;6.592;2024-03-08T04:47:59;50.63;;;22.93;;
20482;SDS011;10400;53.198;6.592;2024-03-08T04:50:25;40.13;;;20.90;;
20482;SDS011;10400;53.198;6.592;2024-03-08T04:52:54;44.20;;;22.07;;
20482;SDS011;10400;53.198;6.592;2024-03-08T04:55:20;40.40;;;21.53;;
20482;SDS011;10400;53.198;6.592;2024-03-08T04:57:46;46.83;;;22.37;;
20482;SDS011;10400;53.198;6.592;2024-03-08T05:00:12;40.97;;;22.30;;
20482;SDS011;10400;53.198;6.592;2024-03-08T05:02:40;44.90;;;22.80;;
20482;SDS011;10400;53.198;6.592;2024-03-08T05:05:06;44.30;;;22.33;;
20482;SDS011;10400;53.198;6.592;2024-03-08T05:07:34;47.50;;;21.77;;
20482;SDS011;10400;53.198;6.592;2024-03-08T05:10:00;41.07;;;22.17;;
20482;SDS011;10400;53.198;6.592;2024-03-08T05:12:27;40.13;;;19.87;;
20482;SDS011;10400;53.198;6.592;2024-03-08T05:14:53;47.37;;;21.87;;
20482;SDS011;10400;53.198;6.592;2024-03-08T05:17:19;45.07;;;21.77;;
20482;SDS011;10400;53.198;6.592;2024-03-08T05:19:44;45.57;;;22.40;;
20482;SDS011;10400;53.198;6.592;2024-03-08T05:22:10;36.90;;;20.30;;
20482;SDS011;10400;53.198;6.592;2024-03-08T05:24:36;41.80;;;19.93;;
20482;SDS011;10400;53.198;6.592;2024-03-08T05:27:02;45.73;;;22.67;;
20482;SDS011;10400;53.198;6.592;2024-03-08T05:29:28;41.67;;;21.70;;
20482;SDS011;10400;53.198;6.592;2024-03-08T05:31:54;43.27;;;21.73;;
20482;SDS011;10400;53.198;6.592;2024-03-08T05:34:21;43.43;;;22.03;;
20482;SDS011;10400;53.198;6.592;2024-03-08T05:36:47;42.40;;;21.20;;
20482;SDS011;10400;53.198;6.592;2024-03-08T05:39:15;42.40;;;20.33;;
20482;SDS011;10400;53.198;6.592;2024-03-08T05:41:42;40.67;;;21.07;;
20482;SDS011;10400;53.198;6.592;2024-03-08T05:44:08;40.77;;;21.40;;
20482;SDS011;10400;53.198;6.592;2024-03-08T05:46:35;38.03;;;20.57;;
20482;SDS011;10400;53.198;6.592;2024-03-08T05:49:01;39.00;;;20.37;;
20482;SDS011;10400;53.198;6.592;2024-03-08T05:51:33;45.90;;;20.43;;
20482;SDS011;10400;53.198;6.592;2024-03-08T05:54:01;42.30;;;21.17;;
20482;SDS011;10400;53.198;6.592;2024-03-08T05:56:35;38.53;;;20.40;;
20482;SDS011;10400;53.198;6.592;2024-03-08T05:59:01;40.13;;;20.07;;
20482;SDS011;10400;53.198;6.592;2024-03-08T06:01:27;43.77;;;20.47;;
20482;SDS011;10400;53.198;6.592;2024-03-08T06:03:54;43.60;;;21.33;;
20482;SDS011;10400;53.198;6.592;2024-03-08T06:06:23;39.97;;;19.87;;
20482;SDS011;10400;53.198;6.592;2024-03-08T06:08:50;41.90;;;20.23;;
20482;SDS011;10400;53.198;6.592;2024-03-08T06:11:16;36.63;;;19.70;;
20482;SDS011;10400;53.198;6.592;2024-03-08T06:13:43;37.50;;;19.77;;
20482;SDS011;10400;53.198;6.592;2024-03-08T06:16:10;39.63;;;20.17;;
20482;SDS011;10400;53.198;6.592;2024-03-08T06:18:36;37.87;;;19.97;;
20482;SDS011;10400;53.198;6.592;2024-03-08T06:21:02;43.03;;;20.10;;
20482;SDS011;10400;53.198;6.592;2024-03-08T06:23:32;40.33;;;20.03;;
20482;SDS011;10400;53.198;6.592;2024-03-08T06:26:06;38.60;;;20.27;;
20482;SDS011;10400;53.198;6.592;2024-03-08T06:28:33;39.40;;;19.67;;
20482;SDS011;10400;53.198;6.592;2024-03-08T06:31:00;42.43;;;19.80;;
20482;SDS011;10400;53.198;6.592;2024-03-08T06:33:26;39.40;;;20.53;;
20482;SDS011;10400;53.198;6.592;2024-03-08T06:35:53;38.93;;;19.47;;
20482;SDS011;10400;53.198;6.592;2024-03-08T06:38:25;42.77;;;20.70;;
20482;SDS011;10400;53.198;6.592;2024-03-08T06:40:51;36.27;;;19.87;;
20482;SDS011;10400;53.198;6.592;2024-03-08T06:43:18;40.37;;;20.17;;
20482;SDS011;10400;53.198;6.592;2024-03-08T06:45:47;39.53;;;20.30;;
20482;SDS011;10400;53.198;6.592;2024-03-08T06:48:16;37.30;;;18.87;;
20482;SDS011;10400;53.198;6.592;2024-03-08T06:50:43;39.43;;;20.90;;
20482;SDS011;10400;53.198;6.592;2024-03-08T06:53:10;39.67;;;19.13;;
20482;SDS011;10400;53.198;6.592;2024-03-08T06:55:36;41.23;;;20.13;;
20482;SDS011;10400;53.198;6.592;2024-03-08T06:58:01;37.60;;;19.20;;
20482;SDS011;10400;53.198;6.592;2024-03-08T07:00:27;39.67;;;19.23;;
20482;SDS011;10400;53.198;6.592;2024-03-08T07:02:56;37.27;;;19.93;;
20482;SDS011;10400;53.198;6.592;2024-03-08T07:05:28;37.43;;;19.83;;
20482;SDS011;10400;53.198;6.592;2024-03-08T07:07:55;37.20;;;19.67;;
20482;SDS011;10400;53.198;6.592;2024-03-08T07:10:21;38.43;;;19.87;;
20482;SDS011;10400;53.198;6.592;2024-03-08T07:12:50;35.70;;;18.93;;
20482;SDS011;10400;53.198;6.592;2024-03-08T07:15:16;38.47;;;19.47;;
20482;SDS011;10400;53.198;6.592;2024-03-08T07:17:44;37.83;;;19.33;;
20482;SDS011;10400;53.198;6.592;2024-03-08T07:20:10;43.53;;;20.27;;
20482;SDS011;10400;53.198;6.592;2024-03-08T07:22:38;37.97;;;19.50;;
20482;SDS011;10400;53.198;6.592;2024-03-08T07:25:07;40.93;;;21.30;;
20482;SDS011;10400;53.198;6.592;2024-03-08T07:27:46;36.47;;;19.87;;
20482;SDS011;10400;53.198;6.592;2024-03-08T07:30:16;41.27;;;20.00;;
20482;SDS011;10400;53.198;6.592;2024-03-08T07:33:02;40.97;;;20.67;;
20482;SDS011;10400;53.198;6.592;2024-03-08T07:35:28;35.30;;;18.83;;
20482;SDS011;10400;53.198;6.592;2024-03-08T07:37:54;37.43;;;19.73;;
20482;SDS011;10400;53.198;6.592;2024-03-08T07:40:23;40.03;;;20.17;;
20482;SDS011;10400;53.198;6.592;2024-03-08T07:42:49;35.63;;;18.97;;
20482;SDS011;10400;53.198;6.592;2024-03-08T07:45:15;35.93;;;19.87;;
20482;SDS011;10400;53.198;6.592;2024-03-08T07:47:41;35.47;;;19.23;;
20482;SDS011;10400;53.198;6.592;2024-03-08T07:50:07;34.17;;;18.37;;
20482;SDS011;10400;53.198;6.592;2024-03-08T07:52:34;36.93;;;19.23;;
20482;SDS011;10400;53.198;6.592;2024-03-08T07:55:00;39.93;;;19.47;;
20482;SDS011;10400;53.198;6.592;2024-03-08T07:57:26;38.13;;;19.50;;
20482;SDS011;10400;53.198;6.592;2024-03-08T07:59:52;38.83;;;19.50;;
20482;SDS011;10400;53.198;6.592;2024-03-08T08:02:17;40.87;;;20.17;;
20482;SDS011;10400;53.198;6.592;2024-03-08T08:04:43;31.07;;;18.17;;
20482;SDS011;10400;53.198;6.592;2024-03-08T08:07:10;31.10;;;19.07;;
20482;SDS011;10400;53.198;6.592;2024-03-08T08:09:36;39.92;;;20.17;;
20482;SDS011;10400;53.198;6.592;2024-03-08T08:12:03;34.40;;;19.70;;
20482;SDS011;10400;53.198;6.592;2024-03-08T08:14:29;38.50;;;19.67;;
20482;SDS011;10400;53.198;6.592;2024-03-08T08:16:55;41.07;;;20.73;;
20482;SDS011;10400;53.198;6.592;2024-03-08T08:19:22;38.58;;;20.20;;
20482;SDS011;10400;53.198;6.592;2024-03-08T08:21:48;35.07;;;19.73;;
20482;SDS011;10400;53.198;6.592;2024-03-08T08:24:14;37.63;;;20.60;;
20482;SDS011;10400;53.198;6.592;2024-03-08T08:26:40;36.97;;;19.37;;
20482;SDS011;10400;53.198;6.592;2024-03-08T08:29:06;36.87;;;20.13;;
20482;SDS011;10400;53.198;6.592;2024-03-08T08:31:32;36.97;;;20.13;;
20482;SDS011;10400;53.198;6.592;2024-03-08T08:33:58;38.37;;;20.10;;
20482;SDS011;10400;53.198;6.592;2024-03-08T08:36:24;35.80;;;19.33;;
20482;SDS011;10400;53.198;6.592;2024-03-08T08:38:50;42.67;;;20.80;;
20482;SDS011;10400;53.198;6.592;2024-03-08T08:41:19;40.13;;;20.70;;
20482;SDS011;10400;53.198;6.592;2024-03-08T08:43:46;34.60;;;20.00;;
20482;SDS011;10400;53.198;6.592;2024-03-08T08:46:16;38.07;;;20.43;;
20482;SDS011;10400;53.198;6.592;2024-03-08T08:48:42;38.72;;;19.77;;
20482;SDS011;10400;53.198;6.592;2024-03-08T08:51:10;35.40;;;19.40;;
20482;SDS011;10400;53.198;6.592;2024-03-08T08:53:42;38.03;;;21.30;;
20482;SDS011;10400;53.198;6.592;2024-03-08T08:56:08;36.35;;;20.75;;
20482;SDS011;10400;53.198;6.592;2024-03-08T08:58:37;37.53;;;20.65;;
20482;SDS011;10400;53.198;6.592;2024-03-08T09:01:09;37.80;;;19.70;;
20482;SDS011;10400;53.198;6.592;2024-03-08T09:03:38;36.40;;;20.50;;
20482;SDS011;10400;53.198;6.592;2024-03-08T09:06:07;31.40;;;18.00;;
20482;SDS011;10400;53.198;6.592;2024-03-08T09:08:35;38.42;;;20.58;;
20482;SDS011;10400;53.198;6.592;2024-03-08T09:11:02;33.15;;;19.40;;
20482;SDS011;10400;53.198;6.592;2024-03-08T09:13:27;37.83;;;20.10;;
20482;SDS011;10400;53.198;6.592;2024-03-08T09:15:53;35.55;;;19.23;;
20482;SDS011;10400;53.198;6.592;2024-03-08T09:18:19;36.75;;;20.50;;
20482;SDS011;10400;53.198;6.592;2024-03-08T09:20:44;33.22;;;18.85;;
20482;SDS011;10400;53.198;6.592;2024-03-08T09:23:10;36.22;;;19.67;;
20482;SDS011;10400;53.198;6.592;2024-03-08T09:25:36;35.70;;;19.52;;
20482;SDS011;10400;53.198;6.592;2024-03-08T09:28:02;44.05;;;21.40;;
20482;SDS011;10400;53.198;6.592;2024-03-08T09:30:28;36.38;;;18.42;;
20482;SDS011;10400;53.198;6.592;2024-03-08T09:32:54;35.47;;;19.92;;
20482;SDS011;10400;53.198;6.592;2024-03-08T09:35:19;33.17;;;19.48;;
20482;SDS011;10400;53.198;6.592;2024-03-08T09:37:45;36.25;;;21.35;;
20482;SDS011;10400;53.198;6.592;2024-03-08T09:40:16;35.47;;;20.27;;
20482;SDS011;10400;53.198;6.592;2024-03-08T09:42:44;36.08;;;20.95;;
20482;SDS011;10400;53.198;6.592;2024-03-08T09:45:12;35.58;;;19.02;;
20482;SDS011;10400;53.198;6.592;2024-03-08T09:47:46;34.03;;;19.13;;
20482;SDS011;10400;53.198;6.592;2024-03-08T09:50:13;39.53;;;21.17;;
20482;SDS011;10400;53.198;6.592;2024-03-08T09:52:40;34.95;;;19.85;;
20482;SDS011;10400;53.198;6.592;2024-03-08T09:55:06;33.85;;;20.15;;
20482;SDS011;10400;53.198;6.592;2024-03-08T09:57:32;35.47;;;20.80;;
20482;SDS011;10400;53.198;6.592;2024-03-08T09:59:58;38.72;;;21.67;;
20482;SDS011;10400;53.198;6.592;2024-03-08T10:02:24;36.00;;;21.45;;
20482;SDS011;10400;53.198;6.592;2024-03-08T10:04:51;34.83;;;21.55;;
20482;SDS011;10400;53.198;6.592;2024-03-08T10:07:18;36.70;;;20.00;;
20482;SDS011;10400;53.198;6.592;2024-03-08T10:09:44;39.47;;;21.63;;
20482;SDS011;10400;53.198;6.592;2024-03-08T10:12:15;35.55;;;20.63;;
20482;SDS011;10400;53.198;6.592;2024-03-08T10:14:42;35.22;;;20.92;;
20482;SDS011;10400;53.198;6.592;2024-03-08T10:17:08;37.95;;;21.75;;
20482;SDS011;10400;53.198;6.592;2024-03-08T10:19:34;35.72;;;20.33;;
20482;SDS011;10400;53.198;6.592;2024-03-08T10:22:00;34.33;;;20.20;;
20482;SDS011;10400;53.198;6.592;2024-03-08T10:24:25;37.78;;;20.83;;
20482;SDS011;10400;53.198;6.592;2024-03-08T10:26:52;32.70;;;20.27;;
20482;SDS011;10400;53.198;6.592;2024-03-08T10:29:19;33.67;;;20.52;;
20482;SDS011;10400;53.198;6.592;2024-03-08T10:31:45;35.75;;;21.15;;
20482;SDS011;10400;53.198;6.592;2024-03-08T10:34:11;32.30;;;20.33;;
20482;SDS011;10400;53.198;6.592;2024-03-08T10:36:36;36.83;;;20.70;;
20482;SDS011;10400;53.198;6.592;2024-03-08T10:39:07;33.78;;;20.25;;
20482;SDS011;10400;53.198;6.592;2024-03-08T10:41:44;33.78;;;20.10;;
20482;SDS011;10400;53.198;6.592;2024-03-08T10:47:01;36.22;;;20.85;;
20482;SDS011;10400;53.198;6.592;2024-03-08T10:49:55;35.20;;;20.55;;
20482;SDS011;10400;53.198;6.592;2024-03-08T10:52:43;35.72;;;21.75;;
20482;SDS011;10400;53.198;6.592;2024-03-08T10:55:09;39.13;;;21.20;;
20482;SDS011;10400;53.198;6.592;2024-03-08T10:57:38;34.08;;;20.48;;
20482;SDS011;10400;53.198;6.592;2024-03-08T11:00:06;33.63;;;19.48;;
20482;SDS011;10400;53.198;6.592;2024-03-08T11:02:35;34.45;;;19.65;;
20482;SDS011;10400;53.198;6.592;2024-03-08T11:05:02;35.70;;;22.70;;
20482;SDS011;10400;53.198;6.592;2024-03-08T11:07:33;36.90;;;20.20;;
20482;SDS011;10400;53.198;6.592;2024-03-08T11:10:02;35.00;;;20.73;;
20482;SDS011;10400;53.198;6.592;2024-03-08T11:12:36;33.78;;;20.67;;
20482;SDS011;10400;53.198;6.592;2024-03-08T11:15:03;35.38;;;20.80;;
20482;SDS011;10400;53.198;6.592;2024-03-08T11:20:25;37.22;;;21.77;;
20482;SDS011;10400;53.198;6.592;2024-03-08T11:22:51;34.50;;;21.20;;
20482;SDS011;10400;53.198;6.592;2024-03-08T11:25:40;32.67;;;20.40;;
20482;SDS011;10400;53.198;6.592;2024-03-08T11:28:17;36.00;;;22.10;;
20482;SDS011;10400;53.198;6.592;2024-03-08T11:30:44;37.25;;;20.80;;
20482;SDS011;10400;53.198;6.592;2024-03-08T11:33:13;35.65;;;20.95;;
20482;SDS011;10400;53.198;6.592;2024-03-08T11:35:41;35.03;;;20.85;;
20482;SDS011;10400;53.198;6.592;2024-03-08T11:38:10;36.08;;;20.23;;
20482;SDS011;10400;53.198;6.592;2024-03-08T11:40:38;34.00;;;21.75;;
20482;SDS011;10400;53.198;6.592;2024-03-08T11:43:05;36.85;;;20.67;;
20482;SDS011;10400;53.198;6.592;2024-03-08T11:45:32;36.80;;;22.40;;
20482;SDS011;10400;53.198;6.592;2024-03-08T11:48:01;30.77;;;18.55;;
20482;SDS011;10400;53.198;6.592;2024-03-08T11:50:30;31.80;;;20.25;;
20482;SDS011;10400;53.198;6.592;2024-03-08T11:53:01;35.15;;;20.77;;
20482;SDS011;10400;53.198;6.592;2024-03-08T11:55:33;35.78;;;20.85;;
20482;SDS011;10400;53.198;6.592;2024-03-08T11:58:01;36.90;;;20.83;;
20482;SDS011;10400;53.198;6.592;2024-03-08T12:00:28;33.95;;;20.92;;
20482;SDS011;10400;53.198;6.592;2024-03-08T12:03:03;37.00;;;20.60;;
20482;SDS011;10400;53.198;6.592;2024-03-08T12:05:33;30.15;;;19.75;;
20482;SDS011;10400;53.198;6.592;2024-03-08T12:07:59;37.17;;;21.33;;
20482;SDS011;10400;53.198;6.592;2024-03-08T12:10:25;34.05;;;21.00;;
20482;SDS011;10400;53.198;6.592;2024-03-08T12:12:52;36.67;;;21.27;;
20482;SDS011;10400;53.198;6.592;2024-03-08T12:15:20;37.88;;;19.90;;
20482;SDS011;10400;53.198;6.592;2024-03-08T12:17:47;33.35;;;20.98;;
20482;SDS011;10400;53.198;6.592;2024-03-08T12:22:48;31.98;;;20.83;;
20482;SDS011;10400;53.198;6.592;2024-03-08T12:25:17;39.10;;;21.08;;
20482;SDS011;10400;53.198;6.592;2024-03-08T12:27:43;30.60;;;19.35;;
20482;SDS011;10400;53.198;6.592;2024-03-08T12:30:18;32.95;;;19.73;;
20482;SDS011;10400;53.198;6.592;2024-03-08T12:32:50;29.17;;;19.65;;
20482;SDS011;10400;53.198;6.592;2024-03-08T12:35:19;35.45;;;22.15;;
20482;SDS011;10400;53.198;6.592;2024-03-08T12:37:48;32.85;;;20.38;;
20482;SDS011;10400;53.198;6.592;2024-03-08T12:40:16;33.42;;;20.10;;
20482;SDS011;10400;53.198;6.592;2024-03-08T12:42:45;33.20;;;20.67;;
20482;SDS011;10400;53.198;6.592;2024-03-08T12:45:14;30.77;;;19.15;;
20482;SDS011;10400;53.198;6.592;2024-03-08T12:47:40;33.92;;;19.45;;
20482;SDS011;10400;53.198;6.592;2024-03-08T12:50:07;32.85;;;20.95;;
20482;SDS011;10400;53.198;6.592;2024-03-08T12:52:34;37.83;;;20.58;;
20482;SDS011;10400;53.198;6.592;2024-03-08T12:55:00;31.52;;;19.35;;
20482;SDS011;10400;53.198;6.592;2024-03-08T12:57:31;31.02;;;19.48;;
20482;SDS011;10400;53.198;6.592;2024-03-08T13:00:02;30.45;;;19.42;;
20482;SDS011;10400;53.198;6.592;2024-03-08T13:02:29;31.17;;;19.85;;
20482;SDS011;10400;53.198;6.592;2024-03-08T13:04:57;33.17;;;18.80;;
20482;SDS011;10400;53.198;6.592;2024-03-08T13:07:23;28.92;;;18.63;;
20482;SDS011;10400;53.198;6.592;2024-03-08T13:09:53;31.80;;;19.08;;
20482;SDS011;10400;53.198;6.592;2024-03-08T13:12:23;30.23;;;18.92;;
20482;SDS011;10400;53.198;6.592;2024-03-08T13:14:48;29.13;;;19.02;;
20482;SDS011;10400;53.198;6.592;2024-03-08T13:17:15;32.80;;;19.48;;
20482;SDS011;10400;53.198;6.592;2024-03-08T13:19:41;30.02;;;18.92;;
20482;SDS011;10400;53.198;6.592;2024-03-08T13:22:09;31.85;;;19.15;;
20482;SDS011;10400;53.198;6.592;2024-03-08T13:24:41;32.90;;;17.65;;
20482;SDS011;10400;53.198;6.592;2024-03-08T13:27:08;29.33;;;17.52;;
20482;SDS011;10400;53.198;6.592;2024-03-08T13:29:47;27.08;;;16.90;;
20482;SDS011;10400;53.198;6.592;2024-03-08T13:32:16;29.73;;;17.50;;
20482;SDS011;10400;53.198;6.592;2024-03-08T13:34:45;30.13;;;18.10;;
20482;SDS011;10400;53.198;6.592;2024-03-08T13:37:12;29.88;;;17.23;;
20482;SDS011;10400;53.198;6.592;2024-03-08T13:39:41;30.15;;;18.10;;
20482;SDS011;10400;53.198;6.592;2024-03-08T13:42:12;30.90;;;17.48;;
20482;SDS011;10400;53.198;6.592;2024-03-08T13:44:39;31.17;;;17.17;;
20482;SDS011;10400;53.198;6.592;2024-03-08T13:47:08;30.00;;;17.98;;
20482;SDS011;10400;53.198;6.592;2024-03-08T13:49:34;28.70;;;18.10;;
20482;SDS011;10400;53.198;6.592;2024-03-08T13:51:59;27.55;;;16.45;;
20482;SDS011;10400;53.198;6.592;2024-03-08T13:54:25;25.63;;;15.88;;
20482;SDS011;10400;53.198;6.592;2024-03-08T13:56:52;30.33;;;17.17;;
20482;SDS011;10400;53.198;6.592;2024-03-08T13:59:19;25.10;;;16.65;;
20482;SDS011;10400;53.198;6.592;2024-03-08T14:01:47;29.95;;;16.85;;
20482;SDS011;10400;53.198;6.592;2024-03-08T14:04:16;26.98;;;17.08;;
20482;SDS011;10400;53.198;6.592;2024-03-08T14:06:44;28.88;;;17.45;;
20482;SDS011;10400;53.198;6.592;2024-03-08T14:09:11;25.48;;;16.85;;
20482;SDS011;10400;53.198;6.592;2024-03-08T14:11:45;24.85;;;16.50;;
20482;SDS011;10400;53.198;6.592;2024-03-08T14:14:11;27.65;;;16.58;;
20482;SDS011;10400;53.198;6.592;2024-03-08T14:16:40;28.73;;;16.63;;
20482;SDS011;10400;53.198;6.592;2024-03-08T14:19:05;28.63;;;16.23;;
20482;SDS011;10400;53.198;6.592;2024-03-08T14:21:32;24.00;;;15.85;;
20482;SDS011;10400;53.198;6.592;2024-03-08T14:23:58;30.42;;;16.40;;
20482;SDS011;10400;53.198;6.592;2024-03-08T14:26:24;27.75;;;17.35;;
20482;SDS011;10400;53.198;6.592;2024-03-08T14:28:49;29.10;;;16.05;;
20482;SDS011;10400;53.198;6.592;2024-03-08T14:31:19;27.85;;;16.05;;